sensor_id;sensor_type;location;lat;lon;timestamp;pressure;altitude;pressure_sealevel;temperature;humidity
21960;BME280;11144;43.030;25.108;2023-06-14T00:00:34;99049.06;;;17.85;77.41
21960;BME280;11144;43.030;25.108;2023-06-14T00:02:07;99048.00;;;17.86;77.44
21960;BME280;11144;43.030;25.108;2023-06-14T00:03:41;99050.91;;;17.85;77.42
21960;BME280;11144;43.030;25.108;2023-06-14T00:05:16;99053.22;;;17.81;77.41
21960;BME280;11144;43.030;25.108;2023-06-14T00:06:48;99048.84;;;17.75;77.45
21960;BME280;11144;43.030;25.108;2023-06-14T00:08:22;99046.69;;;17.72;77.49
21960;BME280;11144;43.030;25.108;2023-06-14T00:09:56;99058.56;;;17.70;77.55
21960;BME280;11144;43.030;25.108;2023-06-14T00:11:29;99046.09;;;17.70;77.59
21960;BME280;11144;43.030;25.108;2023-06-14T00:13:03;99046.09;;;17.70;77.48
21960;BME280;11144;43.030;25.108;2023-06-14T00:14:37;99052.91;;;17.66;77.63
21960;BME280;11144;43.030;25.108;2023-06-14T00:16:10;99045.19;;;17.64;77.63
21960;BME280;11144;43.030;25.108;2023-06-14T00:17:43;99042.78;;;17.63;77.68
21960;BME280;11144;43.030;25.108;2023-06-14T00:19:16;99039.19;;;17.57;77.81
21960;BME280;11144;43.030;25.108;2023-06-14T00:20:51;99056.03;;;17.63;77.81
21960;BME280;11144;43.030;25.108;2023-06-14T00:22:24;99038.94;;;17.59;78.05
21960;BME280;11144;43.030;25.108;2023-06-14T00:23:58;99036.53;;;17.57;78.03
21960;BME280;11144;43.030;25.108;2023-06-14T00:25:32;99046.22;;;17.63;78.08
21960;BME280;11144;43.030;25.108;2023-06-14T00:27:06;99045.19;;;17.64;78.14
21960;BME280;11144;43.030;25.108;2023-06-14T00:28:39;99038.84;;;17.65;78.41
21960;BME280;11144;43.030;25.108;2023-06-14T00:30:13;99045.31;;;17.70;78.27
21960;BME280;11144;43.030;25.108;2023-06-14T00:31:47;99048.28;;;17.73;78.11
21960;BME280;11144;43.030;25.108;2023-06-14T00:33:20;99046.75;;;17.77;78.30
21960;BME280;11144;43.030;25.108;2023-06-14T00:34:54;99047.00;;;17.76;78.37
21960;BME280;11144;43.030;25.108;2023-06-14T00:36:29;99030.53;;;17.62;78.38
21960;BME280;11144;43.030;25.108;2023-06-14T00:38:02;99039.75;;;17.71;78.44
21960;BME280;11144;43.030;25.108;2023-06-14T00:39:35;99041.84;;;17.69;78.50
21960;BME280;11144;43.030;25.108;2023-06-14T00:41:09;99039.44;;;17.67;78.25
21960;BME280;11144;43.030;25.108;2023-06-14T00:42:42;99039.19;;;17.69;78.42
21960;BME280;11144;43.030;25.108;2023-06-14T00:44:16;99023.03;;;17.71;78.37
21960;BME280;11144;43.030;25.108;2023-06-14T00:45:50;99026.81;;;17.75;78.50
21960;BME280;11144;43.030;25.108;2023-06-14T00:47:24;99025.69;;;17.71;78.41
21960;BME280;11144;43.030;25.108;2023-06-14T00:48:58;99031.91;;;17.76;78.32
21960;BME280;11144;43.030;25.108;2023-06-14T00:50:33;99033.19;;;17.74;78.31
21960;BME280;11144;43.030;25.108;2023-06-14T00:52:09;99032.38;;;17.73;78.32
21960;BME280;11144;43.030;25.108;2023-06-14T00:53:44;99026.75;;;17.70;78.33
21960;BME280;11144;43.030;25.108;2023-06-14T00:55:21;99033.88;;;17.69;78.55
21960;BME280;11144;43.030;25.108;2023-06-14T00:56:54;99029.41;;;17.70;78.15
21960;BME280;11144;43.030;25.108;2023-06-14T00:58:28;99016.34;;;17.68;78.26
21960;BME280;11144;43.030;25.108;2023-06-14T01:00:02;99017.97;;;17.69;78.17
21960;BME280;11144;43.030;25.108;2023-06-14T01:01:34;99014.28;;;17.70;78.10
21960;BME280;11144;43.030;25.108;2023-06-14T01:03:08;99017.97;;;17.69;78.23
21960;BME280;11144;43.030;25.108;2023-06-14T01:04:46;99014.50;;;17.68;78.14
21960;BME280;11144;43.030;25.108;2023-06-14T01:06:27;99002.44;;;17.61;78.12
21960;BME280;11144;43.030;25.108;2023-06-14T01:08:19;99004.41;;;17.65;78.47
21960;BME280;11144;43.030;25.108;2023-06-14T01:10:17;99009.22;;;17.68;78.27
21960;BME280;11144;43.030;25.108;2023-06-14T01:11:59;99004.41;;;17.65;78.09
21960;BME280;11144;43.030;25.108;2023-06-14T01:13:38;99008.63;;;17.66;77.85
21960;BME280;11144;43.030;25.108;2023-06-14T01:15:13;99004.59;;;17.64;78.10
21960;BME280;11144;43.030;25.108;2023-06-14T01:16:47;99005.66;;;17.63;78.24
21960;BME280;11144;43.030;25.108;2023-06-14T01:18:28;98997.16;;;17.61;78.46
21960;BME280;11144;43.030;25.108;2023-06-14T01:20:02;99005.41;;;17.64;78.16
21960;BME280;11144;43.030;25.108;2023-06-14T01:21:41;98997.22;;;17.66;78.28
21960;BME280;11144;43.030;25.108;2023-06-14T01:23:16;99007.84;;;17.66;78.33
21960;BME280;11144;43.030;25.108;2023-06-14T01:24:48;98999.09;;;17.65;78.41
21960;BME280;11144;43.030;25.108;2023-06-14T01:26:27;98996.19;;;17.67;78.30
21960;BME280;11144;43.030;25.108;2023-06-14T01:28:06;98991.34;;;17.64;78.52
21960;BME280;11144;43.030;25.108;2023-06-14T01:29:43;98999.41;;;17.69;78.32
21960;BME280;11144;43.030;25.108;2023-06-14T01:31:44;98998.59;;;17.68;78.55
21960;BME280;11144;43.030;25.108;2023-06-14T01:33:39;99002.31;;;17.67;78.01
21960;BME280;11144;43.030;25.108;2023-06-14T01:35:12;99006.81;;;17.67;78.24
21960;BME280;11144;43.030;25.108;2023-06-14T01:36:46;99012.09;;;17.67;78.27
21960;BME280;11144;43.030;25.108;2023-06-14T01:38:25;99004.03;;;17.62;78.26
21960;BME280;11144;43.030;25.108;2023-06-14T01:39:59;99011.41;;;17.60;78.38
21960;BME280;11144;43.030;25.108;2023-06-14T01:41:32;99002.78;;;17.53;78.58
21960;BME280;11144;43.030;25.108;2023-06-14T01:43:06;99000.47;;;17.45;78.87
21960;BME280;11144;43.030;25.108;2023-06-14T01:44:42;98996.00;;;17.34;79.03
21960;BME280;11144;43.030;25.108;2023-06-14T01:46:16;99005.34;;;17.25;79.27
21960;BME280;11144;43.030;25.108;2023-06-14T01:47:51;99003.63;;;17.19;79.51
21960;BME280;11144;43.030;25.108;2023-06-14T01:49:25;99003.72;;;17.12;79.44
21960;BME280;11144;43.030;25.108;2023-06-14T01:50:59;99010.41;;;17.15;79.81
21960;BME280;11144;43.030;25.108;2023-06-14T01:52:31;99004.63;;;17.18;79.57
21960;BME280;11144;43.030;25.108;2023-06-14T01:54:06;99012.94;;;17.21;79.61
21960;BME280;11144;43.030;25.108;2023-06-14T01:55:39;99007.16;;;17.24;79.44
21960;BME280;11144;43.030;25.108;2023-06-14T01:57:15;99012.59;;;17.29;79.33
21960;BME280;11144;43.030;25.108;2023-06-14T01:58:49;99010.75;;;17.30;79.43
21960;BME280;11144;43.030;25.108;2023-06-14T02:00:24;99017.06;;;17.29;79.21
21960;BME280;11144;43.030;25.108;2023-06-14T02:01:58;99025.47;;;17.26;79.22
21960;BME280;11144;43.030;25.108;2023-06-14T02:03:31;99026.97;;;17.22;79.24
21960;BME280;11144;43.030;25.108;2023-06-14T02:05:04;99020.09;;;17.21;79.49
21960;BME280;11144;43.030;25.108;2023-06-14T02:06:38;99023.41;;;17.16;79.37
21960;BME280;11144;43.030;25.108;2023-06-14T02:08:10;99018.38;;;17.15;79.62
21960;BME280;11144;43.030;25.108;2023-06-14T02:09:45;99022.59;;;17.16;79.52
21960;BME280;11144;43.030;25.108;2023-06-14T02:11:18;99023.66;;;17.15;79.66
21960;BME280;11144;43.030;25.108;2023-06-14T02:12:51;99029.75;;;17.15;79.73
21960;BME280;11144;43.030;25.108;2023-06-14T02:14:25;99025.72;;;17.13;79.77
21960;BME280;11144;43.030;25.108;2023-06-14T02:15:59;99023.31;;;17.11;79.75
21960;BME280;11144;43.030;25.108;2023-06-14T02:17:33;99027.91;;;17.16;79.72
21960;BME280;11144;43.030;25.108;2023-06-14T02:19:10;99024.69;;;17.14;79.94
21960;BME280;11144;43.030;25.108;2023-06-14T02:20:43;99024.69;;;17.14;80.09
21960;BME280;11144;43.030;25.108;2023-06-14T02:22:16;99027.66;;;17.17;79.92
21960;BME280;11144;43.030;25.108;2023-06-14T02:23:49;99024.22;;;17.17;79.99
21960;BME280;11144;43.030;25.108;2023-06-14T02:25:26;99015.00;;;17.19;79.92
21960;BME280;11144;43.030;25.108;2023-06-14T02:26:59;99023.88;;;17.25;79.83
21960;BME280;11144;43.030;25.108;2023-06-14T02:28:33;99032.41;;;17.27;79.77
21960;BME280;11144;43.030;25.108;2023-06-14T02:30:06;99029.28;;;17.30;79.82
21960;BME280;11144;43.030;25.108;2023-06-14T02:31:40;99026.16;;;17.33;79.75
21960;BME280;11144;43.030;25.108;2023-06-14T02:33:13;99024.09;;;17.35;79.79
21960;BME280;11144;43.030;25.108;2023-06-14T02:34:46;99029.19;;;17.36;79.73
21960;BME280;11144;43.030;25.108;2023-06-14T02:36:22;99028.94;;;17.38;79.71
21960;BME280;11144;43.030;25.108;2023-06-14T02:37:55;99026.41;;;17.43;79.67
21960;BME280;11144;43.030;25.108;2023-06-14T02:39:28;99017.19;;;17.45;79.73
21960;BME280;11144;43.030;25.108;2023-06-14T02:41:03;99034.44;;;17.48;79.74
21960;BME280;11144;43.030;25.108;2023-06-14T02:42:37;99031.38;;;17.51;79.39
21960;BME280;11144;43.030;25.108;2023-06-14T02:44:10;99029.88;;;17.55;79.25
21960;BME280;11144;43.030;25.108;2023-06-14T02:45:44;99030.22;;;17.58;79.22
21960;BME280;11144;43.030;25.108;2023-06-14T02:47:18;99041.53;;;17.54;79.33
21960;BME280;11144;43.030;25.108;2023-06-14T02:48:51;99034.94;;;17.56;79.15
21960;BME280;11144;43.030;25.108;2023-06-14T02:50:24;99035.41;;;17.65;79.19
21960;BME280;11144;43.030;25.108;2023-06-14T02:51:57;99048.16;;;17.68;79.07
21960;BME280;11144;43.030;25.108;2023-06-14T02:53:30;99045.06;;;17.71;78.82
21960;BME280;11144;43.030;25.108;2023-06-14T02:55:03;99046.19;;;17.75;78.75
21960;BME280;11144;43.030;25.108;2023-06-14T02:56:39;99044.13;;;17.77;78.65
21960;BME280;11144;43.030;25.108;2023-06-14T02:58:13;99042.84;;;17.80;78.50
21960;BME280;11144;43.030;25.108;2023-06-14T02:59:46;99054.25;;;17.80;78.54
21960;BME280;11144;43.030;25.108;2023-06-14T03:01:19;99054.84;;;17.82;78.61
21960;BME280;11144;43.030;25.108;2023-06-14T03:02:54;99047.91;;;17.81;78.48
21960;BME280;11144;43.030;25.108;2023-06-14T03:04:28;99055.84;;;17.81;78.41
21960;BME280;11144;43.030;25.108;2023-06-14T03:06:01;99056.34;;;17.78;78.32
21960;BME280;11144;43.030;25.108;2023-06-14T03:07:40;99059.25;;;17.77;78.37
21960;BME280;11144;43.030;25.108;2023-06-14T03:09:14;99060.84;;;17.78;78.28
21960;BME280;11144;43.030;25.108;2023-06-14T03:10:48;99060.84;;;17.78;78.04
21960;BME280;11144;43.030;25.108;2023-06-14T03:12:23;99069.13;;;17.81;78.13
21960;BME280;11144;43.030;25.108;2023-06-14T03:13:57;99067.63;;;17.85;78.21
21960;BME280;11144;43.030;25.108;2023-06-14T03:15:31;99069.22;;;17.86;78.21
21960;BME280;11144;43.030;25.108;2023-06-14T03:17:05;99076.16;;;17.87;78.41
21960;BME280;11144;43.030;25.108;2023-06-14T03:18:42;99074.06;;;17.89;78.22
21960;BME280;11144;43.030;25.108;2023-06-14T03:20:16;99075.91;;;17.89;78.24
21960;BME280;11144;43.030;25.108;2023-06-14T03:21:52;99079.38;;;17.89;78.21
21960;BME280;11144;43.030;25.108;2023-06-14T03:23:30;99074.66;;;17.91;78.25
21960;BME280;11144;43.030;25.108;2023-06-14T03:25:07;99081.34;;;17.94;77.96
21960;BME280;11144;43.030;25.108;2023-06-14T03:26:44;99068.78;;;17.89;77.98
21960;BME280;11144;43.030;25.108;2023-06-14T03:28:19;99079.81;;;17.98;77.81
21960;BME280;11144;43.030;25.108;2023-06-14T03:29:52;99072.69;;;17.98;77.51
21960;BME280;11144;43.030;25.108;2023-06-14T03:31:26;99074.06;;;18.01;77.58
21960;BME280;11144;43.030;25.108;2023-06-14T03:33:00;99076.47;;;18.02;77.46
21960;BME280;11144;43.030;25.108;2023-06-14T03:34:34;99075.91;;;18.00;77.71
21960;BME280;11144;43.030;25.108;2023-06-14T03:36:11;99081.19;;;18.00;77.98
21960;BME280;11144;43.030;25.108;2023-06-14T03:37:45;99077.41;;;17.96;77.90
21960;BME280;11144;43.030;25.108;2023-06-14T03:39:19;99081.66;;;17.97;78.04
21960;BME280;11144;43.030;25.108;2023-06-14T03:40:53;99084.88;;;17.99;77.89
21960;BME280;11144;43.030;25.108;2023-06-14T03:42:26;99082.22;;;17.99;78.23
21960;BME280;11144;43.030;25.108;2023-06-14T03:44:01;99088.09;;;18.01;78.09
21960;BME280;11144;43.030;25.108;2023-06-14T03:45:35;99080.38;;;18.00;78.11
21960;BME280;11144;43.030;25.108;2023-06-14T03:47:09;99086.16;;;17.97;78.06
21960;BME280;11144;43.030;25.108;2023-06-14T03:48:42;99085.50;;;17.90;78.15
21960;BME280;11144;43.030;25.108;2023-06-14T03:50:17;99085.16;;;17.86;78.32
21960;BME280;11144;43.030;25.108;2023-06-14T03:51:50;99083.53;;;17.85;78.16
21960;BME280;11144;43.030;25.108;2023-06-14T03:53:27;99090.44;;;17.86;78.11
21960;BME280;11144;43.030;25.108;2023-06-14T03:55:02;99085.16;;;17.86;77.97
21960;BME280;11144;43.030;25.108;2023-06-14T03:56:39;99087.78;;;17.86;77.89
21960;BME280;11144;43.030;25.108;2023-06-14T03:58:15;99083.53;;;17.85;77.64
21960;BME280;11144;43.030;25.108;2023-06-14T03:59:48;99093.22;;;17.91;78.01
21960;BME280;11144;43.030;25.108;2023-06-14T04:01:23;99093.78;;;17.93;78.11
21960;BME280;11144;43.030;25.108;2023-06-14T04:03:03;99091.13;;;17.93;77.86
21960;BME280;11144;43.030;25.108;2023-06-14T04:04:38;99094.91;;;17.97;77.63
21960;BME280;11144;43.030;25.108;2023-06-14T04:06:11;99098.72;;;18.01;77.56
21960;BME280;11144;43.030;25.108;2023-06-14T04:07:52;99099.78;;;18.00;77.50
21960;BME280;11144;43.030;25.108;2023-06-14T04:09:27;99096.19;;;18.06;77.21
21960;BME280;11144;43.030;25.108;2023-06-14T04:11:01;99101.81;;;18.10;77.19
21960;BME280;11144;43.030;25.108;2023-06-14T04:12:34;99106.31;;;18.09;77.36
21960;BME280;11144;43.030;25.108;2023-06-14T04:14:07;99101.34;;;18.13;77.27
21960;BME280;11144;43.030;25.108;2023-06-14T04:15:42;99095.59;;;18.04;77.18
21960;BME280;11144;43.030;25.108;2023-06-14T04:17:18;99094.22;;;18.02;76.95
21960;BME280;11144;43.030;25.108;2023-06-14T04:18:52;99105.66;;;18.02;77.15
21960;BME280;11144;43.030;25.108;2023-06-14T04:20:27;99107.84;;;18.05;77.17
21960;BME280;11144;43.030;25.108;2023-06-14T04:22:00;99098.25;;;18.04;76.93
21960;BME280;11144;43.030;25.108;2023-06-14T04:23:38;99113.34;;;18.04;76.98
21960;BME280;11144;43.030;25.108;2023-06-14T04:25:17;99101.03;;;17.98;77.01
21960;BME280;11144;43.030;25.108;2023-06-14T04:26:55;99108.44;;;17.96;77.01
21960;BME280;11144;43.030;25.108;2023-06-14T04:28:30;99102.75;;;17.92;77.00
21960;BME280;11144;43.030;25.108;2023-06-14T04:30:07;99116.16;;;17.86;76.85
21960;BME280;11144;43.030;25.108;2023-06-14T04:31:47;99113.28;;;17.87;77.24
21960;BME280;11144;43.030;25.108;2023-06-14T04:33:21;99116.50;;;17.89;77.06
21960;BME280;11144;43.030;25.108;2023-06-14T04:34:58;99116.16;;;17.86;77.22
21960;BME280;11144;43.030;25.108;2023-06-14T04:36:35;99118.59;;;17.87;76.93
21960;BME280;11144;43.030;25.108;2023-06-14T04:38:10;99117.53;;;17.88;76.83
21960;BME280;11144;43.030;25.108;2023-06-14T04:39:43;99132.53;;;17.94;76.78
21960;BME280;11144;43.030;25.108;2023-06-14T04:41:16;99125.25;;;18.01;76.64
21960;BME280;11144;43.030;25.108;2023-06-14T04:42:51;99128.81;;;18.07;76.57
21960;BME280;11144;43.030;25.108;2023-06-14T04:44:25;99133.44;;;18.11;76.47
21960;BME280;11144;43.030;25.108;2023-06-14T04:46:04;99130.53;;;18.13;76.71
21960;BME280;11144;43.030;25.108;2023-06-14T04:47:44;99131.91;;;18.15;76.63
21960;BME280;11144;43.030;25.108;2023-06-14T04:49:18;99141.72;;;18.15;76.31
21960;BME280;11144;43.030;25.108;2023-06-14T04:50:51;99138.16;;;18.09;76.47
21960;BME280;11144;43.030;25.108;2023-06-14T04:52:25;99137.22;;;18.04;76.43
21960;BME280;11144;43.030;25.108;2023-06-14T04:53:59;99144.16;;;18.05;76.43
21960;BME280;11144;43.030;25.108;2023-06-14T04:55:34;99129.28;;;18.04;76.55
21960;BME280;11144;43.030;25.108;2023-06-14T04:57:10;99134.38;;;18.05;76.56
21960;BME280;11144;43.030;25.108;2023-06-14T04:58:47;99140.69;;;18.04;76.58
21960;BME280;11144;43.030;25.108;2023-06-14T05:00:20;99144.38;;;18.03;76.68
21960;BME280;11144;43.030;25.108;2023-06-14T05:01:55;99146.56;;;18.06;76.73
21960;BME280;11144;43.030;25.108;2023-06-14T05:03:30;99150.84;;;18.07;76.57
21960;BME280;11144;43.030;25.108;2023-06-14T05:05:07;99143.09;;;18.06;76.68
21960;BME280;11144;43.030;25.108;2023-06-14T05:06:41;99143.81;;;18.01;76.97
21960;BME280;11144;43.030;25.108;2023-06-14T05:08:17;99137.47;;;18.02;76.80
21960;BME280;11144;43.030;25.108;2023-06-14T05:09:50;99148.63;;;18.16;76.74
21960;BME280;11144;43.030;25.108;2023-06-14T05:11:25;99145.84;;;18.22;76.43
21960;BME280;11144;43.030;25.108;2023-06-14T05:12:59;99148.03;;;18.25;76.37
21960;BME280;11144;43.030;25.108;2023-06-14T05:14:33;99143.91;;;18.18;76.39
21960;BME280;11144;43.030;25.108;2023-06-14T05:16:08;99156.22;;;18.24;76.40
21960;BME280;11144;43.030;25.108;2023-06-14T05:17:42;99158.63;;;18.25;76.26
21960;BME280;11144;43.030;25.108;2023-06-14T05:19:17;99160.25;;;18.26;76.17
21960;BME280;11144;43.030;25.108;2023-06-14T05:20:50;99161.53;;;18.24;76.18
21960;BME280;11144;43.030;25.108;2023-06-14T05:22:24;99162.72;;;18.16;76.30
21960;BME280;11144;43.030;25.108;2023-06-14T05:23:57;99162.22;;;18.19;76.54
21960;BME280;11144;43.030;25.108;2023-06-14T05:25:31;99165.94;;;18.18;76.45
21960;BME280;11144;43.030;25.108;2023-06-14T05:27:05;99167.09;;;18.22;76.20
21960;BME280;11144;43.030;25.108;2023-06-14T05:28:38;99172.03;;;18.19;76.44
21960;BME280;11144;43.030;25.108;2023-06-14T05:30:13;99169.38;;;18.19;76.25
21960;BME280;11144;43.030;25.108;2023-06-14T05:31:46;99169.75;;;18.22;76.14
21960;BME280;11144;43.030;25.108;2023-06-14T05:33:20;99167.66;;;18.24;76.26
21960;BME280;11144;43.030;25.108;2023-06-14T05:34:54;99177.81;;;18.27;75.87
21960;BME280;11144;43.030;25.108;2023-06-14T05:36:28;99181.81;;;18.30;75.99
21960;BME280;11144;43.030;25.108;2023-06-14T05:38:01;99185.66;;;18.34;76.02
21960;BME280;11144;43.030;25.108;2023-06-14T05:39:35;99183.78;;;18.34;75.79
21960;BME280;11144;43.030;25.108;2023-06-14T05:41:08;99181.13;;;18.34;75.94
21960;BME280;11144;43.030;25.108;2023-06-14T05:42:41;99179.03;;;18.36;75.59
21960;BME280;11144;43.030;25.108;2023-06-14T05:44:15;99187.38;;;18.28;75.81
21960;BME280;11144;43.030;25.108;2023-06-14T05:45:48;99191.66;;;18.29;75.86
21960;BME280;11144;43.030;25.108;2023-06-14T05:47:23;99181.03;;;18.29;75.89
21960;BME280;11144;43.030;25.108;2023-06-14T05:48:57;99183.44;;;18.31;76.13
21960;BME280;11144;43.030;25.108;2023-06-14T05:50:32;99173.78;;;18.25;75.82
21960;BME280;11144;43.030;25.108;2023-06-14T05:52:07;99177.81;;;18.27;75.90
21960;BME280;11144;43.030;25.108;2023-06-14T05:53:41;99187.25;;;18.23;75.76
21960;BME280;11144;43.030;25.108;2023-06-14T05:55:16;99186.94;;;18.20;76.06
21960;BME280;11144;43.030;25.108;2023-06-14T05:56:50;99189.91;;;18.23;75.94
21960;BME280;11144;43.030;25.108;2023-06-14T05:58:23;99195.78;;;18.25;75.77
21960;BME280;11144;43.030;25.108;2023-06-14T05:59:57;99181.63;;;18.20;75.90
21960;BME280;11144;43.030;25.108;2023-06-14T06:01:30;99184.84;;;18.22;76.04
21960;BME280;11144;43.030;25.108;2023-06-14T06:03:06;99191.41;;;18.19;76.03
21960;BME280;11144;43.030;25.108;2023-06-14T06:04:40;99189.13;;;18.11;75.93
21960;BME280;11144;43.030;25.108;2023-06-14T06:06:15;99200.44;;;18.18;76.02
21960;BME280;11144;43.030;25.108;2023-06-14T06:07:51;99192.09;;;18.26;76.20
21960;BME280;11144;43.030;25.108;2023-06-14T06:09:24;99200.97;;;18.32;75.91
21960;BME280;11144;43.030;25.108;2023-06-14T06:10:58;99198.78;;;18.40;75.70
21960;BME280;11144;43.030;25.108;2023-06-14T06:12:32;99193.81;;;18.44;75.55
21960;BME280;11144;43.030;25.108;2023-06-14T06:14:06;99202.59;;;18.45;75.61
21960;BME280;11144;43.030;25.108;2023-06-14T06:15:39;99202.22;;;18.53;75.52
21960;BME280;11144;43.030;25.108;2023-06-14T06:17:12;99194.69;;;18.61;75.60
21960;BME280;11144;43.030;25.108;2023-06-14T06:18:46;99199.31;;;18.66;75.33
21960;BME280;11144;43.030;25.108;2023-06-14T06:20:19;99192.25;;;18.71;75.19
21960;BME280;11144;43.030;25.108;2023-06-14T06:21:55;99193.38;;;18.75;74.93
21960;BME280;11144;43.030;25.108;2023-06-14T06:23:31;99197.03;;;18.86;74.90
21960;BME280;11144;43.030;25.108;2023-06-14T06:25:06;99194.00;;;18.94;75.08
21960;BME280;11144;43.030;25.108;2023-06-14T06:26:39;99191.94;;;18.96;74.87
21960;BME280;11144;43.030;25.108;2023-06-14T06:28:13;99195.16;;;18.98;74.87
21960;BME280;11144;43.030;25.108;2023-06-14T06:29:46;99195.16;;;18.98;74.66
21960;BME280;11144;43.030;25.108;2023-06-14T06:31:20;99197.09;;;19.02;74.68
21960;BME280;11144;43.030;25.108;2023-06-14T06:32:54;99195.66;;;19.11;74.63
21960;BME280;11144;43.030;25.108;2023-06-14T06:34:28;99195.97;;;19.15;74.36
21960;BME280;11144;43.030;25.108;2023-06-14T06:36:02;99200.59;;;19.20;74.12
21960;BME280;11144;43.030;25.108;2023-06-14T06:37:37;99193.97;;;19.22;74.14
21960;BME280;11144;43.030;25.108;2023-06-14T06:39:10;99194.56;;;19.24;74.13
21960;BME280;11144;43.030;25.108;2023-06-14T06:40:44;99196.16;;;19.25;73.97
21960;BME280;11144;43.030;25.108;2023-06-14T06:42:20;99199.72;;;19.31;73.96
21960;BME280;11144;43.030;25.108;2023-06-14T06:43:55;99199.25;;;19.34;74.02
21960;BME280;11144;43.030;25.108;2023-06-14T06:45:33;99204.91;;;19.37;73.92
21960;BME280;11144;43.030;25.108;2023-06-14T06:47:06;99205.72;;;19.38;73.74
21960;BME280;11144;43.030;25.108;2023-06-14T06:48:41;99206.03;;;19.41;73.68
21960;BME280;11144;43.030;25.108;2023-06-14T06:50:15;99197.50;;;19.39;73.30
21960;BME280;11144;43.030;25.108;2023-06-14T06:51:59;99199.47;;;19.32;73.06
21960;BME280;11144;43.030;25.108;2023-06-14T06:53:35;99195.47;;;19.46;73.43
21960;BME280;11144;43.030;25.108;2023-06-14T06:55:16;99195.47;;;19.63;73.21
21960;BME280;11144;43.030;25.108;2023-06-14T06:56:50;99199.50;;;19.82;72.77
21960;BME280;11144;43.030;25.108;2023-06-14T06:58:24;99200.47;;;19.93;73.05
21960;BME280;11144;43.030;25.108;2023-06-14T06:59:57;99189.06;;;19.97;72.65
21960;BME280;11144;43.030;25.108;2023-06-14T07:01:31;99191.66;;;19.92;72.32
21960;BME280;11144;43.030;25.108;2023-06-14T07:03:06;99182.66;;;19.93;72.19
21960;BME280;11144;43.030;25.108;2023-06-14T07:04:40;99194.47;;;20.02;72.13
21960;BME280;11144;43.030;25.108;2023-06-14T07:06:13;99202.28;;;20.09;71.56
21960;BME280;11144;43.030;25.108;2023-06-14T07:07:49;99192.44;;;20.09;71.64
21960;BME280;11144;43.030;25.108;2023-06-14T07:09:26;99202.34;;;20.14;72.15
21960;BME280;11144;43.030;25.108;2023-06-14T07:11:00;99195.09;;;20.26;72.03
21960;BME280;11144;43.030;25.108;2023-06-14T07:12:34;99197.88;;;20.36;71.97
21960;BME280;11144;43.030;25.108;2023-06-14T07:14:11;99204.94;;;20.47;71.61
21960;BME280;11144;43.030;25.108;2023-06-14T07:15:44;99204.19;;;20.51;71.05
21960;BME280;11144;43.030;25.108;2023-06-14T07:17:18;99204.31;;;20.62;70.85
21960;BME280;11144;43.030;25.108;2023-06-14T07:18:51;99192.47;;;20.74;70.37
21960;BME280;11144;43.030;25.108;2023-06-14T07:20:25;99202.19;;;20.85;70.24
21960;BME280;11144;43.030;25.108;2023-06-14T07:21:58;99201.50;;;20.95;70.63
21960;BME280;11144;43.030;25.108;2023-06-14T07:23:32;99202.16;;;21.07;69.73
21960;BME280;11144;43.030;25.108;2023-06-14T07:25:07;99201.94;;;21.08;69.53
21960;BME280;11144;43.030;25.108;2023-06-14T07:26:41;99201.63;;;21.05;69.79
21960;BME280;11144;43.030;25.108;2023-06-14T07:28:16;99201.63;;;21.05;69.44
21960;BME280;11144;43.030;25.108;2023-06-14T07:29:50;99204.16;;;21.16;69.42
21960;BME280;11144;43.030;25.108;2023-06-14T07:31:26;99206.31;;;21.19;68.99
21960;BME280;11144;43.030;25.108;2023-06-14T07:32:59;99209.75;;;21.20;68.17
21960;BME280;11144;43.030;25.108;2023-06-14T07:34:33;99202.84;;;21.19;68.84
21960;BME280;11144;43.030;25.108;2023-06-14T07:36:06;99218.63;;;21.25;68.43
21960;BME280;11144;43.030;25.108;2023-06-14T07:37:40;99208.22;;;21.24;68.14
21960;BME280;11144;43.030;25.108;2023-06-14T07:39:14;99204.69;;;21.18;68.14
21960;BME280;11144;43.030;25.108;2023-06-14T07:40:49;99215.91;;;21.20;67.37
21960;BME280;11144;43.030;25.108;2023-06-14T07:42:22;99210.97;;;21.07;67.53
21960;BME280;11144;43.030;25.108;2023-06-14T07:43:56;99204.19;;;21.00;67.90
21960;BME280;11144;43.030;25.108;2023-06-14T07:45:29;99209.72;;;20.93;68.11
21960;BME280;11144;43.030;25.108;2023-06-14T07:47:03;99205.97;;;20.89;68.20
21960;BME280;11144;43.030;25.108;2023-06-14T07:48:36;99206.50;;;20.91;68.25
21960;BME280;11144;43.030;25.108;2023-06-14T07:50:10;99207.03;;;20.88;68.41
21960;BME280;11144;43.030;25.108;2023-06-14T07:51:44;99202.53;;;20.94;67.66
21960;BME280;11144;43.030;25.108;2023-06-14T07:53:18;99211.66;;;20.98;68.24
21960;BME280;11144;43.030;25.108;2023-06-14T07:54:51;99201.78;;;20.98;68.15
21960;BME280;11144;43.030;25.108;2023-06-14T07:56:25;99209.34;;;21.06;68.26
21960;BME280;11144;43.030;25.108;2023-06-14T07:57:59;99209.69;;;21.10;67.79
21960;BME280;11144;43.030;25.108;2023-06-14T07:59:32;99214.47;;;21.08;67.92
21960;BME280;11144;43.030;25.108;2023-06-14T08:01:05;99213.19;;;21.15;67.82
21960;BME280;11144;43.030;25.108;2023-06-14T08:02:41;99212.94;;;21.17;67.54
21960;BME280;11144;43.030;25.108;2023-06-14T08:04:15;99218.50;;;21.15;67.42
21960;BME280;11144;43.030;25.108;2023-06-14T08:05:49;99212.63;;;21.13;66.95
21960;BME280;11144;43.030;25.108;2023-06-14T08:07:22;99212.94;;;20.95;67.32
21960;BME280;11144;43.030;25.108;2023-06-14T08:08:56;99218.19;;;20.85;68.01
21960;BME280;11144;43.030;25.108;2023-06-14T08:10:33;99216.38;;;20.91;67.84
21960;BME280;11144;43.030;25.108;2023-06-14T08:12:12;99211.66;;;20.98;67.70
21960;BME280;11144;43.030;25.108;2023-06-14T08:13:45;99215.50;;;21.07;67.92
21960;BME280;11144;43.030;25.108;2023-06-14T08:15:19;99216.38;;;21.12;68.17